Time;durP1;ratioP1;P1;durP2;ratioP2;P2;SDS_P1;SDS_P2;PMS_P1;PMS_P2;Temp;Humidity;BMP_temperature;BMP_pressure;BME280_temperature;BME280_humidity;BME280_pressure;Samples;Min_cycle;Max_cycle;Signal;HPM_P1;HPM_P2
2023/01/01 00:01:07;;;;;;;58.92;32.72;;;;;;;10.06;100.00;99261.78;5106746;28;20403;-80
2023/01/01 00:03:35;;;;;;;59.83;32.25;;;;;;;10.11;100.00;99262.09;5105231;28;20384;-79
2023/01/01 00:06:05;;;;;;;53.75;33.15;;;;;;;10.10;100.00;99257.66;5107774;28;20054;-80
2023/01/01 00:08:31;;;;;;;;;;;;;;;10.17;100.00;99266.81;5108607;28;20063;-80
2023/01/01 00:11:00;;;;;;;52.30;31.30;;;;;;;10.18;100.00;99267.66;5102384;28;19930;-80
2023/01/01 00:13:27;;;;;;;64.90;34.20;;;;;;;10.09;100.00;99261.44;5105088;28;20052;-80
2023/01/01 00:15:53;;;;;;;57.13;34.03;;;;;;;10.02;100.00;99247.72;5103453;28;20075;-79
2023/01/01 00:18:20;;;;;;;67.93;35.65;;;;;;;10.14;100.00;99255.47;5098837;28;20041;-79
2023/01/01 00:20:48;;;;;;;59.38;33.95;;;;;;;10.17;100.00;99268.69;5105850;28;20051;-80
2023/01/01 00:23:14;;;;;;;66.47;34.25;;;;;;;10.23;100.00;99262.53;5105236;28;20047;-79
2023/01/01 00:25:41;;;;;;;69.28;36.28;;;;;;;10.10;100.00;99266.69;5108981;28;20052;-79
2023/01/01 00:28:08;;;;;;;62.35;33.70;;;;;;;9.95;100.00;99245.88;5102869;28;20058;-79
2023/01/01 00:30:35;;;;;;;58.97;33.72;;;;;;;9.97;100.00;99249.28;5109207;28;20061;-79
2023/01/01 00:33:02;;;;;;;70.10;37.25;;;;;;;10.07;100.00;99261.63;5106248;28;20059;-79
2023/01/01 00:35:28;;;;;;;70.63;38.63;;;;;;;10.10;100.00;99269.41;5101708;28;20048;-79
2023/01/01 00:37:56;;;;;;;65.93;36.50;;;;;;;10.09;100.00;99256.84;5106478;27;20044;-79
2023/01/01 00:40:23;;;;;;;66.85;35.60;;;;;;;10.06;100.00;99265.34;5106647;28;20499;-79
2023/01/01 00:42:49;;;;;;;71.25;37.10;;;;;;;10.05;100.00;99250.06;5110479;28;20044;-80
2023/01/01 00:45:16;;;;;;;73.25;37.83;;;;;;;10.02;100.00;99250.41;5106875;28;20375;-79
2023/01/01 00:47:42;;;;;;;65.93;36.28;;;;;;;10.06;100.00;99265.34;5111375;28;20388;-79
2023/01/01 00:50:09;;;;;;;67.82;34.25;;;;;;;9.88;100.00;99246.59;5100043;28;20055;-80
2023/01/01 00:52:36;;;;;;;61.83;33.78;;;;;;;10.00;100.00;99254.38;5090431;28;20052;-79
2023/01/01 00:55:04;;;;;;;65.13;32.95;;;;;;;10.03;100.00;99273.84;5098879;28;20075;-79
2023/01/01 00:57:30;;;;;;;59.78;31.05;;;;;;;10.05;100.00;99274.50;5111460;28;20050;-79
2023/01/01 00:59:57;;;;;;;56.20;29.48;;;;;;;10.14;100.00;99275.31;5110349;28;20074;-79
2023/01/01 01:02:23;;;;;;;58.60;31.70;;;;;;;10.00;100.00;99263.34;5109692;28;20520;-80
2023/01/01 01:04:50;;;;;;;54.42;29.67;;;;;;;9.93;100.00;99265.09;5110716;28;20051;-80
2023/01/01 01:07:16;;;;;;;50.40;26.70;;;;;;;10.13;100.00;99279.03;5102918;28;20281;-80
2023/01/01 01:09:43;;;;;;;54.00;28.25;;;;;;;9.95;100.00;99249.47;5106353;28;20051;-79
2023/01/01 01:12:11;;;;;;;43.45;23.60;;;;;;;10.02;100.00;99266.72;5110169;28;20073;-79
2023/01/01 01:14:37;;;;;;;49.50;27.77;;;;;;;9.88;100.00;99256.63;5110504;28;20066;-79
2023/01/01 01:17:04;;;;;;;40.20;24.23;;;;;;;9.94;100.00;99271.38;5112568;28;20044;-80
2023/01/01 01:19:30;;;;;;;51.65;27.20;;;;;;;9.79;100.00;99258.53;5112003;28;20069;-79
2023/01/01 01:21:57;;;;;;;39.70;23.55;;;;;;;9.73;100.00;99256.53;5110389;28;20047;-79
2023/01/01 01:24:23;;;;;;;40.00;23.10;;;;;;;9.78;100.00;99285.88;5103664;28;20081;-79
2023/01/01 01:26:50;;;;;;;38.97;21.58;;;;;;;9.63;100.00;99247.75;5111053;28;20044;-80
2023/01/01 01:29:18;;;;;;;40.05;20.85;;;;;;;9.81;100.00;99283.63;5112345;28;20043;-79
2023/01/01 01:31:45;;;;;;;45.42;24.10;;;;;;;9.78;100.00;99286.72;5112405;28;20054;-80
2023/01/01 01:34:11;;;;;;;44.55;21.83;;;;;;;9.71;100.00;99286.59;5109606;28;20059;-80
2023/01/01 01:36:38;;;;;;;43.60;23.27;;;;;;;9.65;100.00;99286.41;5105604;28;20048;-79
2023/01/01 01:39:04;;;;;;;40.90;20.65;;;;;;;9.54;100.00;99285.81;5105259;28;20509;-80
2023/01/01 01:41:31;;;;;;;39.67;21.73;;;;;;;9.36;100.00;99268.88;5095653;28;20067;-80
2023/01/01 01:44:00;;;;;;;36.13;21.13;;;;;;;9.43;100.00;99283.47;5088794;28;20040;-80
2023/01/01 01:46:33;;;;;;;36.35;20.08;;;;;;;9.28;100.00;99274.34;5088052;28;20135;-80
2023/01/01 01:49:04;;;;;;;29.48;17.10;;;;;;;9.31;100.00;99293.00;5089273;28;20097;-80
2023/01/01 01:51:36;;;;;;;25.85;16.10;;;;;;;9.09;100.00;99256.59;5110495;28;20058;-79
2023/01/01 01:54:06;;;;;;;26.58;15.48;;;;;;;9.09;100.00;99270.16;5092756;28;20051;-79
2023/01/01 01:56:43;;;;;;;38.40;16.77;;;;;;;9.12;100.00;99278.81;5110062;28;20048;-79
2023/01/01 01:59:09;;;;;;;28.85;15.77;;;;;;;9.09;100.00;99273.69;5090312;28;20079;-79
2023/01/01 02:01:37;;;;;;;31.73;16.30;;;;;;;9.13;100.00;99277.78;5089553;28;20102;-80
2023/01/01 02:04:05;;;;;;;27.75;14.73;;;;;;;9.00;100.00;99288.31;5091052;28;20539;-80
2023/01/01 02:06:35;;;;;;;28.70;15.32;;;;;;;8.81;100.00;99270.53;5105722;28;20134;-80
2023/01/01 02:09:04;;;;;;;29.08;15.60;;;;;;;8.80;100.00;99280.53;5103529;28;20118;-79
2023/01/01 02:11:31;;;;;;;30.60;14.82;;;;;;;8.72;100.00;99266.16;5101888;28;20134;-79
2023/01/01 02:13:58;;;;;;;24.38;12.80;;;;;;;8.77;100.00;99261.06;5107395;28;20043;-79
2023/01/01 02:16:33;;;;;;;23.73;14.63;;;;;;;8.92;100.00;99293.75;5089994;28;20047;-79
2023/01/01 02:19:12;;;;;;;26.02;13.25;;;;;;;8.91;100.00;99289.34;5089043;28;20048;-79
2023/01/01 02:21:52;;;;;;;26.45;13.38;;;;;;;8.72;100.00;99269.69;5102381;28;20054;-79
2023/01/01 02:24:34;;;;;;;25.02;11.95;;;;;;;8.73;100.00;99284.09;5109346;28;20047;-80
2023/01/01 02:27:06;;;;;;;21.95;12.40;;;;;;;8.84;100.00;99302.75;5109145;28;20064;-79
2023/01/01 02:29:45;;;;;;;19.40;11.35;;;;;;;8.83;100.00;99295.63;5100990;28;20048;-79
2023/01/01 02:32:14;;;;;;;17.73;9.82;;;;;;;8.88;100.00;99276.94;5096147;28;20052;-79
2023/01/01 02:34:44;;;;;;;25.90;10.67;;;;;;;9.16;100.00;99301.00;5100794;28;20078;-80
2023/01/01 02:37:15;;;;;;;16.83;9.50;;;;;;;9.30;100.00;99297.56;5099791;28;20058;-80
2023/01/01 02:39:47;;;;;;;15.95;9.32;;;;;;;9.38;100.00;99269.59;5108844;28;20483;-79
2023/01/01 02:42:16;;;;;;;14.32;8.20;;;;;;;9.50;100.00;99281.75;5108142;28;20105;-79
2023/01/01 02:44:47;;;;;;;18.60;9.18;;;;;;;9.63;100.00;99299.34;5105293;28;20048;-80
2023/01/01 02:47:16;;;;;;;14.35;8.35;;;;;;;9.51;100.00;99280.69;5108092;28;20055;-79
2023/01/01 02:49:51;;;;;;;14.75;8.13;;;;;;;9.77;100.00;99311.31;5092086;28;20040;-80
2023/01/01 02:52:36;;;;;;;11.48;7.38;;;;;;;9.65;100.00;99278.28;5104300;28;20052;-79
2023/01/01 02:55:12;;;;;;;16.00;7.63;;;;;;;9.94;100.00;99309.41;5095655;28;20044;-79
2023/01/01 02:57:44;;;;;;;11.82;6.60;;;;;;;10.01;100.00;99299.50;5110541;28;20562;-80
2023/01/01 03:03:06;;;;;;;14.30;7.10;;;;;;;10.10;100.00;99293.84;5105490;28;20177;-79
2023/01/01 03:06:21;;;;;;;13.73;7.78;;;;;;;10.19;100.00;99289.22;5115119;27;20483;-80
2023/01/01 03:08:35;;;;;;;14.13;7.43;;;;;;;10.06;100.00;99288.97;5099444;27;20101;-79
2023/01/01 03:11:05;;;;;;;11.85;7.10;;;;;;;10.15;100.00;99296.03;5099909;28;20067;-80
2023/01/01 03:13:38;;;;;;;13.65;7.25;;;;;;;10.08;100.00;99297.75;5108260;28;20048;-79
2023/01/01 03:16:15;;;;;;;18.92;8.63;;;;;;;9.95;100.00;99308.34;5121467;27;20047;-79
2023/01/01 03:18:48;;;;;;;13.30;7.72;;;;;;;9.87;100.00;99296.50;5108582;28;20044;-80
2023/01/01 03:21:21;;;;;;;14.95;7.07;;;;;;;9.76;100.00;99293.34;5119836;27;20051;-80
2023/01/01 03:23:53;;;;;;;18.00;8.63;;;;;;;9.76;100.00;99293.34;5094847;27;20223;-80
2023/01/01 03:26:23;;;;;;;13.93;6.88;;;;;;;9.88;100.00;99321.81;5107495;27;20075;-79
2023/01/01 03:28:56;;;;;;;13.60;7.88;;;;;;;9.77;100.00;99308.59;5109836;28;20071;-79
2023/01/01 03:31:25;;;;;;;15.23;8.07;;;;;;;9.91;100.00;99326.88;5116983;27;20048;-80
2023/01/01 03:33:58;;;;;;;16.25;8.30;;;;;;;9.77;100.00;99304.03;5114138;27;20043;-79
2023/01/01 03:36:32;;;;;;;16.95;7.55;;;;;;;9.92;100.00;99347.56;5117580;27;20055;-80
2023/01/01 03:39:02;;;;;;;15.63;7.20;;;;;;;9.86;100.00;99323.84;5107348;28;20079;-80
2023/01/01 03:41:34;;;;;;;14.48;7.32;;;;;;;10.15;100.00;99339.50;5122108;27;20043;-79
2023/01/01 03:44:07;;;;;;;14.05;7.20;;;;;;;10.12;100.00;99336.28;5105509;27;20047;-79
2023/01/01 03:46:36;;;;;;;12.63;6.45;;;;;;;10.31;100.00;99343.13;5106577;28;20499;-79
2023/01/01 03:49:05;;;;;;;14.20;6.78;;;;;;;10.24;100.00;99329.44;5100351;28;20044;-79
2023/01/01 03:51:58;;;;;;;8.68;4.90;;;;;;;10.29;100.00;99327.00;5117927;27;20047;-79
2023/01/01 03:54:32;;;;;;;9.75;5.25;;;;;;;10.52;100.00;99339.81;5132872;27;20066;-80
2023/01/01 03:57:08;;;;;;;8.45;5.57;;;;;;;10.45;100.00;99337.81;5109416;27;20430;-79
2023/01/01 03:59:42;;;;;;;11.32;5.78;;;;;;;10.50;100.00;99336.44;5108995;27;20491;-79
2023/01/01 04:02:13;;;;;;;11.30;5.55;;;;;;;10.52;100.00;99342.53;5113430;27;20051;-79
2023/01/01 04:04:40;;;;;;;9.93;5.40;;;;;;;10.46;100.00;99311.47;5112018;28;20052;-79
2023/01/01 04:07:07;;;;;;;10.25;5.38;;;;;;;10.69;98.62;99326.94;5112584;27;20079;-80
2023/01/01 04:09:38;;;;;;;10.93;5.68;;;;;;;10.51;99.67;99314.50;5124745;27;20044;-79
2023/01/01 04:12:05;;;;;;;10.38;5.53;;;;;;;10.57;98.87;99313.78;5125906;27;20059;-79
2023/01/01 04:14:33;;;;;;;11.73;4.97;;;;;;;10.63;97.18;99313.06;5113345;27;20051;-79
2023/01/01 04:17:01;;;;;;;10.13;5.05;;;;;;;10.80;97.62;99346.41;5101556;28;20052;-79
2023/01/01 04:19:29;;;;;;;8.98;4.95;;;;;;;10.71;96.90;99325.75;5111870;28;20052;-79
2023/01/01 04:21:56;;;;;;;12.88;5.38;;;;;;;10.58;97.98;99304.59;5111863;28;20066;-79
2023/01/01 04:24:23;;;;;;;8.65;5.20;;;;;;;10.52;97.95;99312.63;5111767;28;20044;-80
2023/01/01 04:26:50;;;;;;;10.88;5.72;;;;;;;10.34;99.01;99302.91;5111607;28;20109;-80
2023/01/01 04:29:16;;;;;;;12.30;5.18;;;;;;;10.23;99.64;99297.84;5111533;28;20052;-80
2023/01/01 04:31:43;;;;;;;12.25;5.88;;;;;;;10.26;100.00;99321.94;5111124;28;20043;-79
2023/01/01 04:34:09;;;;;;;9.25;5.10;;;;;;;10.14;100.00;99307.06;5097034;28;20057;-80
2023/01/01 04:36:37;;;;;;;10.05;5.20;;;;;;;10.09;100.00;99323.91;5110869;28;20371;-79
2023/01/01 04:39:05;;;;;;;8.40;4.50;;;;;;;9.88;100.00;99303.63;5115273;27;20126;-79
2023/01/01 04:41:31;;;;;;;11.20;5.50;;;;;;;9.88;100.00;99308.22;5116109;27;20486;-79
2023/01/01 04:43:58;;;;;;;9.75;4.95;;;;;;;9.94;100.00;99312.13;5109900;28;20421;-79
2023/01/01 04:46:25;;;;;;;9.23;5.03;;;;;;;9.85;100.00;99295.00;5114330;27;20059;-79
2023/01/01 04:48:51;;;;;;;8.18;4.95;;;;;;;9.90;100.00;99307.00;5106932;28;20044;-79
2023/01/01 04:51:21;;;;;;;8.13;4.40;;;;;;;10.02;100.00;99309.34;5113464;27;20486;-79
2023/01/01 04:53:49;;;;;;;9.33;4.67;;;;;;;10.14;100.00;99313.34;5124239;27;20045;-79
2023/01/01 04:56:17;;;;;;;6.38;3.88;;;;;;;10.23;100.00;99319.59;5110911;28;20285;-79
2023/01/01 04:58:44;;;;;;;11.15;4.22;;;;;;;10.12;100.00;99320.84;5110936;28;20044;-80
2023/01/01 05:01:15;;;;;;;8.10;4.28;;;;;;;10.06;100.00;99322.38;5110544;28;20047;-79
2023/01/01 05:03:42;;;;;;;9.20;4.63;;;;;;;10.00;100.00;99312.25;5110300;28;20048;-79
2023/01/01 05:06:11;;;;;;;8.50;4.43;;;;;;;9.95;100.00;99303.78;5091822;28;20067;-79
2023/01/01 05:08:40;;;;;;;9.32;4.10;;;;;;;10.01;100.00;99319.38;5091193;28;20510;-79
2023/01/01 05:11:09;;;;;;;9.07;4.05;;;;;;;10.12;100.00;99337.13;5102810;28;20043;-79
2023/01/01 05:13:37;;;;;;;8.38;4.45;;;;;;;9.87;100.00;99312.78;5109292;28;20048;-79
2023/01/01 05:16:04;;;;;;;8.80;4.55;;;;;;;9.95;100.00;99327.38;5111428;28;20126;-79
2023/01/01 05:18:32;;;;;;;9.75;4.78;;;;;;;10.02;100.00;99329.19;5110614;28;20066;-79
2023/01/01 05:21:00;;;;;;;10.50;4.32;;;;;;;9.90;100.00;99328.72;5110072;28;20052;-79
2023/01/01 05:23:27;;;;;;;10.52;4.18;;;;;;;9.99;100.00;99340.41;5109601;28;20117;-79
2023/01/01 05:25:54;;;;;;;11.25;4.05;;;;;;;9.96;100.00;99332.63;5110661;27;20048;-79
2023/01/01 05:28:22;;;;;;;8.45;5.22;;;;;;;9.82;100.00;99328.78;5109771;27;20491;-79
2023/01/01 05:30:49;;;;;;;17.60;4.15;;;;;;;9.88;100.00;99336.22;5110881;28;20462;-79
2023/01/01 05:33:15;;;;;;;8.82;4.25;;;;;;;9.95;100.00;99347.25;5109289;28;20422;-79
2023/01/01 05:35:42;;;;;;;8.32;4.50;;;;;;;9.81;100.00;99329.78;5110438;28;20043;-79
2023/01/01 05:38:09;;;;;;;7.78;4.60;;;;;;;9.86;100.00;99342.84;5107525;28;20043;-79
2023/01/01 05:40:38;;;;;;;9.95;4.40;;;;;;;9.91;100.00;99352.16;5090312;28;20056;-79
2023/01/01 05:43:05;;;;;;;8.32;4.60;;;;;;;9.68;100.00;99321.34;5112960;27;20043;-79
2023/01/01 05:45:33;;;;;;;7.32;4.13;;;;;;;9.60;100.00;99341.25;5110175;28;20546;-79
2023/01/01 05:48:00;;;;;;;8.30;4.18;;;;;;;9.45;100.00;99343.81;5108397;28;20051;-79
2023/01/01 05:50:26;;;;;;;6.68;4.22;;;;;;;9.36;100.00;99331.28;5110096;28;20052;-79
2023/01/01 05:52:53;;;;;;;9.85;4.38;;;;;;;9.47;100.00;99349.94;5104108;28;20062;-79
2023/01/01 05:55:19;;;;;;;7.57;4.88;;;;;;;9.43;100.00;99355.88;5105627;28;20486;-79
2023/01/01 05:57:46;;;;;;;8.90;4.72;;;;;;;9.33;100.00;99351.50;5089061;28;20044;-79
2023/01/01 06:00:14;;;;;;;9.73;4.57;;;;;;;9.29;100.00;99352.84;5097061;28;20056;-79
2023/01/01 06:02:42;;;;;;;10.32;4.72;;;;;;;9.32;100.00;99347.09;5109300;28;20058;-79
2023/01/01 06:05:09;;;;;;;10.20;4.70;;;;;;;9.36;100.00;99362.00;5104395;28;20058;-79
2023/01/01 06:07:35;;;;;;;8.80;4.57;;;;;;;9.22;100.00;99341.00;5110044;28;20410;-80
2023/01/01 06:10:02;;;;;;;10.68;4.32;;;;;;;9.35;100.00;99370.31;5106991;28;20558;-81
2023/01/01 06:12:28;;;;;;;13.50;5.40;;;;;;;9.36;100.00;99375.56;5102883;28;20052;-81
2023/01/01 06:14:55;;;;;;;8.40;4.60;;;;;;;9.40;100.00;99378.78;5090049;28;20056;-80
2023/01/01 06:17:21;;;;;;;7.07;4.35;;;;;;;9.33;100.00;99359.63;5089865;28;20052;-80
2023/01/01 06:19:49;;;;;;;14.93;4.78;;;;;;;9.23;100.00;99350.84;5088828;28;20568;-80
2023/01/01 06:22:16;;;;;;;7.88;3.60;;;;;;;9.36;100.00;99388.28;5089897;28;20499;-80
2023/01/01 06:24:42;;;;;;;8.27;4.28;;;;;;;9.20;100.00;99371.00;5108475;28;20519;-80
2023/01/01 06:27:09;;;;;;;11.20;3.80;;;;;;;9.32;100.00;99387.78;5109276;28;20043;-80
2023/01/01 06:29:36;;;;;;;7.80;4.03;;;;;;;9.25;100.00;99375.06;5102505;28;20067;-80
2023/01/01 06:32:02;;;;;;;10.82;4.70;;;;;;;9.27;100.00;99386.59;5092548;28;20054;-80
2023/01/01 06:34:30;;;;;;;10.25;4.60;;;;;;;9.13;100.00;99364.56;5096261;28;20044;-80
2023/01/01 06:36:58;;;;;;;9.27;3.75;;;;;;;9.13;100.00;99358.31;5110569;28;20054;-80
2023/01/01 06:39:24;;;;;;;6.22;3.40;;;;;;;9.20;100.00;99386.44;5108519;28;20043;-80
2023/01/01 06:41:51;;;;;;;9.00;3.83;;;;;;;9.04;100.00;99363.72;5110368;28;20057;-80
2023/01/01 06:44:17;;;;;;;7.68;3.53;;;;;;;9.30;100.00;99387.09;5107208;28;20222;-80
2023/01/01 06:46:44;;;;;;;7.35;3.90;;;;;;;9.28;100.00;99377.44;5101818;28;20044;-80
2023/01/01 06:49:12;;;;;;;8.75;3.35;;;;;;;9.36;100.00;99394.56;5091335;28;20066;-80
2023/01/01 06:51:40;;;;;;;6.82;3.45;;;;;;;9.18;100.00;99358.63;5091020;28;20040;-80
2023/01/01 06:54:09;;;;;;;10.45;3.95;;;;;;;9.19;100.00;99374.72;5090695;28;20055;-80
2023/01/01 06:56:37;;;;;;;9.00;3.42;;;;;;;9.20;100.00;99356.59;5091167;28;20056;-80
2023/01/01 06:59:04;;;;;;;8.48;3.83;;;;;;;9.24;100.00;99359.81;5106373;28;20502;-80
2023/01/01 07:01:32;;;;;;;5.40;3.45;;;;;;;9.26;100.00;99349.63;5109646;28;20054;-80
2023/01/01 07:04:00;;;;;;;5.05;2.85;;;;;;;9.51;100.00;99378.41;5100266;28;20506;-80
2023/01/01 07:06:29;;;;;;;6.20;3.20;;;;;;;9.59;100.00;99385.72;5090826;28;20131;-80
2023/01/01 07:08:56;;;;;;;5.85;2.70;;;;;;;9.65;100.00;99387.72;5090657;28;20048;-81
2023/01/01 07:11:24;;;;;;;4.40;3.00;;;;;;;9.54;100.00;99369.94;5090649;28;20365;-80
2023/01/01 07:13:51;;;;;;;8.02;3.47;;;;;;;9.68;100.00;99390.09;5108152;28;20056;-80
2023/01/01 07:16:18;;;;;;;6.05;3.00;;;;;;;9.81;100.00;99384.09;5111096;28;20051;-80
2023/01/01 07:18:45;;;;;;;12.60;3.00;;;;;;;9.87;100.00;99396.97;5109283;28;20407;-80
2023/01/01 07:21:28;;;;;;;6.22;3.00;;;;;;;9.87;100.00;99377.13;5098802;28;20044;-80
2023/01/01 07:23:56;;;;;;;5.03;2.90;;;;;;;9.87;100.00;99368.97;5089257;28;20044;-80
2023/01/01 07:26:24;;;;;;;12.65;3.55;;;;;;;9.91;100.00;99383.91;5099500;28;20044;-80
2023/01/01 07:28:52;;;;;;;5.47;2.63;;;;;;;9.90;100.00;99377.63;5110715;28;20052;-80
2023/01/01 07:31:18;;;;;;;5.78;3.00;;;;;;;9.99;100.00;99407.47;5110806;28;20051;-80
2023/01/01 07:33:45;;;;;;;7.30;3.08;;;;;;;9.85;100.00;99385.44;5109956;28;20043;-80
2023/01/01 07:36:11;;;;;;;6.60;3.13;;;;;;;9.90;100.00;99399.34;5108993;28;20047;-80
2023/01/01 07:38:38;;;;;;;9.55;2.72;;;;;;;9.77;100.00;99396.34;5103728;28;20048;-80
2023/01/01 07:41:05;;;;;;;7.72;2.78;;;;;;;9.96;100.00;99410.53;5108462;28;20066;-80
2023/01/01 07:43:33;;;;;;;5.78;2.50;;;;;;;9.85;100.00;99418.03;5109817;28;20052;-80
2023/01/01 07:46:00;;;;;;;7.15;2.75;;;;;;;9.78;100.00;99422.47;5108840;28;20052;-80
2023/01/01 07:48:27;;;;;;;6.30;2.60;;;;;;;9.83;100.00;99444.53;5110701;28;20048;-80
2023/01/01 07:50:54;;;;;;;7.57;2.95;;;;;;;9.85;100.00;99441.63;5108842;28;20051;-80
2023/01/01 07:53:20;;;;;;;5.50;2.70;;;;;;;9.89;100.00;99443.84;5109824;28;20051;-81
2023/01/01 07:55:47;;;;;;;5.32;2.53;;;;;;;9.89;100.00;99451.09;5101980;28;20055;-80
2023/01/01 07:58:13;;;;;;;5.35;2.65;;;;;;;9.98;100.00;99469.09;5110497;28;20129;-80
2023/01/01 08:00:45;;;;;;;8.05;2.88;;;;;;;10.00;100.00;99466.22;5108749;28;20411;-80
2023/01/01 08:03:12;;;;;;;6.43;2.90;;;;;;;9.96;100.00;99437.69;5109806;28;20048;-80
2023/01/01 08:05:39;;;;;;;7.85;2.47;;;;;;;10.04;100.00;99453.97;5110612;28;20051;-80
2023/01/01 08:08:05;;;;;;;5.53;2.40;;;;;;;10.01;100.00;99457.91;5108632;28;20128;-80
2023/01/01 08:10:32;;;;;;;7.32;2.50;;;;;;;9.86;100.00;99457.75;5110250;28;20063;-80
2023/01/01 08:13:01;;;;;;;4.03;2.17;;;;;;;9.78;100.00;99440.63;5091455;28;20056;-80
2023/01/01 08:15:28;;;;;;;5.22;2.45;;;;;;;9.73;100.00;99454.72;5090051;28;20059;-80
2023/01/01 08:17:57;;;;;;;4.88;2.58;;;;;;;9.83;100.00;99479.84;5103289;28;20063;-81
2023/01/01 08:20:24;;;;;;;4.57;2.78;;;;;;;9.72;100.00;99474.75;5110301;28;20055;-80
2023/01/01 08:22:51;;;;;;;7.78;2.72;;;;;;;9.75;100.00;99490.69;5107664;28;20044;-80
2023/01/01 08:25:18;;;;;;;7.13;2.85;;;;;;;9.91;100.00;99478.97;5109955;28;20082;-81
2023/01/01 08:27:44;;;;;;;7.38;2.75;;;;;;;9.88;100.00;99488.28;5110160;28;20066;-81
2023/01/01 08:30:14;;;;;;;4.95;2.83;;;;;;;9.87;100.00;99485.75;5092355;28;20048;-81
2023/01/01 08:32:40;;;;;;;4.27;2.80;;;;;;;9.80;100.00;99487.44;5103025;28;20054;-81
2023/01/01 08:35:09;;;;;;;3.20;2.05;;;;;;;9.72;100.00;99462.00;5110262;28;20692;-81
2023/01/01 08:37:36;;;;;;;6.03;3.20;;;;;;;9.78;100.00;99478.63;5112993;28;20056;-81
2023/01/01 08:40:03;;;;;;;5.03;3.20;;;;;;;9.78;100.00;99489.50;5113980;28;20194;-81
2023/01/01 08:42:29;;;;;;;7.30;2.80;;;;;;;9.85;100.00;99482.38;5113351;28;20050;-81
2023/01/01 08:44:56;;;;;;;4.22;2.47;;;;;;;9.89;100.00;99480.97;5113362;28;20499;-80
2023/01/01 08:47:24;;;;;;;6.63;2.67;;;;;;;10.01;100.00;99497.78;5109428;28;20051;-81
2023/01/01 08:49:51;;;;;;;6.13;2.85;;;;;;;9.90;100.00;99478.09;5112837;28;20070;-81
2023/01/01 08:52:19;;;;;;;4.97;2.50;;;;;;;10.05;100.00;99486.38;5092677;28;20487;-81
2023/01/01 08:54:46;;;;;;;7.70;3.13;;;;;;;10.35;100.00;99510.28;5093184;28;20419;-81
2023/01/01 08:57:12;;;;;;;5.60;2.50;;;;;;;10.24;98.26;99479.72;5093210;28;20048;-81
2023/01/01 08:59:39;;;;;;;5.72;2.97;;;;;;;10.53;97.74;99504.63;5092815;28;20491;-81
2023/01/01 09:02:06;;;;;;;4.70;2.60;;;;;;;10.56;97.43;99509.69;5102563;28;20054;-81
2023/01/01 09:04:32;;;;;;;9.27;2.47;;;;;;;10.66;97.60;99525.78;5103331;27;20416;-81
2023/01/01 09:06:59;;;;;;;4.88;2.58;;;;;;;10.57;95.86;99485.06;5112969;28;20518;-81
2023/01/01 09:09:27;;;;;;;6.07;2.88;;;;;;;10.78;96.07;99492.59;5113529;28;20052;-81
2023/01/01 09:11:55;;;;;;;14.30;3.75;;;;;;;10.79;96.00;99488.84;5113185;28;20055;-81
2023/01/01 09:14:22;;;;;;;6.00;3.00;;;;;;;10.87;96.22;99501.56;5112856;28;20098;-81
2023/01/01 09:16:49;;;;;;;8.05;3.80;;;;;;;10.88;96.46;99495.06;5111142;28;20051;-81
2023/01/01 09:19:15;;;;;;;9.90;3.30;;;;;;;11.00;95.96;99503.69;5109451;28;20059;-81
2023/01/01 09:21:42;;;;;;;9.30;3.15;;;;;;;11.00;94.46;99486.53;5092878;28;20051;-81
2023/01/01 09:24:08;;;;;;;7.22;3.47;;;;;;;11.07;94.85;99482.91;5112167;28;20131;-81
2023/01/01 09:26:51;;;;;;;8.65;2.53;;;;;;;11.32;93.76;99508.06;5113211;28;20507;-80
2023/01/01 09:29:20;;;;;;;7.93;2.92;;;;;;;11.33;94.58;99503.47;5107463;28;20511;-81
2023/01/01 09:31:47;;;;;;;5.18;2.53;;;;;;;11.50;92.35;99505.03;5113043;28;20051;-81
2023/01/01 09:34:15;;;;;;;5.45;2.30;;;;;;;11.59;91.23;99502.22;5112540;28;20407;-81
2023/01/01 09:36:42;;;;;;;5.88;2.78;;;;;;;11.65;89.93;99502.38;5105204;28;20047;-81
2023/01/01 09:39:11;;;;;;;5.18;2.00;;;;;;;11.75;90.16;99507.53;5104432;28;20047;-81
2023/01/01 09:42:00;;;;;;;4.38;2.33;;;;;;;11.62;90.94;99494.56;5112433;28;20055;-81
2023/01/01 09:44:45;;;;;;;4.68;2.50;;;;;;;11.68;90.33;99495.69;5110851;28;20051;-81
2023/01/01 09:47:20;;;;;;;7.53;3.13;;;;;;;11.87;88.95;99502.50;5103240;28;20557;-81
2023/01/01 09:49:49;;;;;;;5.53;3.08;;;;;;;11.98;88.21;99513.00;5108636;27;20062;-81
2023/01/01 09:52:18;;;;;;;6.78;2.78;;;;;;;12.03;88.53;99496.09;5103891;28;20547;-81
2023/01/01 09:54:50;;;;;;;9.85;2.95;;;;;;;12.17;87.82;99511.59;5094524;28;20051;-81
2023/01/01 09:57:18;;;;;;;5.55;2.13;;;;;;;12.26;85.43;99492.44;5089380;28;20052;-81
2023/01/01 09:59:45;;;;;;;8.98;3.22;;;;;;;12.39;86.18;99509.81;5097481;28;20043;-81
2023/01/01 10:02:28;;;;;;;8.60;2.50;;;;;;;12.43;85.82;99503.97;5108636;28;20502;-81
2023/01/01 10:05:03;;;;;;;9.10;2.80;;;;;;;12.57;85.51;99517.59;5109932;28;20477;-81
2023/01/01 10:07:38;;;;;;;7.03;2.63;;;;;;;12.62;85.11;99517.03;5091442;28;20301;-82
2023/01/01 10:10:20;;;;;;;4.97;2.38;;;;;;;12.63;83.99;99509.69;5090015;28;20055;-80
2023/01/01 10:12:56;;;;;;;6.82;2.65;;;;;;;12.59;84.33;99492.03;5090486;28;20473;-81
2023/01/01 10:15:25;;;;;;;5.53;2.45;;;;;;;12.66;83.90;99495.69;5109868;28;20044;-81
2023/01/01 10:17:57;;;;;;;4.65;2.55;;;;;;;12.70;83.76;99500.56;5108470;28;20426;-81
2023/01/01 10:20:27;;;;;;;5.43;2.40;;;;;;;12.71;83.51;99495.97;5109954;28;20044;-81
2023/01/01 10:22:57;;;;;;;5.00;2.38;;;;;;;12.62;84.06;99487.03;5108262;28;20043;-80
2023/01/01 10:25:27;;;;;;;3.83;2.35;;;;;;;12.58;84.02;99483.00;5104629;28;20130;-81
2023/01/01 10:27:59;;;;;;;4.22;1.83;;;;;;;12.70;84.48;99508.75;5103597;28;20138;-81
2023/01/01 10:30:28;;;;;;;4.07;2.60;;;;;;;12.73;81.93;99488.44;5110129;28;20048;-82
2023/01/01 10:32:56;;;;;;;6.82;2.72;;;;;;;12.81;82.32;99490.19;5107897;28;20051;-82
2023/01/01 10:35:29;;;;;;;7.85;2.38;;;;;;;12.89;81.44;99476.47;5109700;28;20055;-81
2023/01/01 10:37:57;;;;;;;6.20;2.88;;;;;;;13.14;81.78;99506.09;5109536;28;20062;-81
2023/01/01 10:40:26;;;;;;;5.85;2.28;;;;;;;13.19;81.15;99503.66;5109548;28;20491;-81
2023/01/01 10:42:56;;;;;;;4.88;2.42;;;;;;;13.12;81.20;99502.75;5102540;28;20039;-81
2023/01/01 10:45:30;;;;;;;4.68;2.17;;;;;;;13.05;80.76;99489.00;5101336;28;20426;-81
2023/01/01 10:48:11;;;;;;;9.82;2.75;;;;;;;13.13;80.15;99485.28;5106684;28;20445;-81
2023/01/01 10:50:43;;;;;;;5.20;2.25;;;;;;;13.38;76.99;99513.97;5109243;28;20055;-81
2023/01/01 10:53:20;;;;;;;4.63;2.40;;;;;;;13.33;76.11;99475.44;5107955;28;20047;-81
2023/01/01 10:55:49;;;;;;;5.65;2.65;;;;;;;13.44;75.89;99476.81;5109166;28;20044;-81
2023/01/01 10:58:32;;;;;;;5.25;2.15;;;;;;;13.61;76.85;99508.31;5105229;28;20066;-81
2023/01/01 11:01:00;;;;;;;4.07;2.22;;;;;;;13.67;76.17;99501.22;5106681;28;20514;-81
2023/01/01 11:03:26;;;;;;;4.97;2.22;;;;;;;13.76;74.85;99510.94;5087189;28;20048;-81
2023/01/01 11:06:05;;;;;;;10.25;2.47;;;;;;;13.69;72.25;99490.09;5088718;28;20401;-81
2023/01/01 11:08:35;;;;;;;7.13;2.65;;;;;;;13.95;73.36;99517.59;5088766;28;20147;-81
2023/01/01 11:11:03;;;;;;;5.40;2.88;;;;;;;13.87;73.87;99495.06;5088573;28;20055;-81
2023/01/01 11:13:33;;;;;;;6.38;2.13;;;;;;;13.97;74.34;99496.41;5090630;28;20047;-81
2023/01/01 11:16:00;;;;;;;7.30;2.85;;;;;;;13.92;74.87;99498.03;5107172;28;20058;-81
2023/01/01 11:18:34;;;;;;;3.58;2.33;;;;;;;13.94;74.85;99485.00;5102847;28;20048;-81
2023/01/01 11:21:02;;;;;;;3.85;2.20;;;;;;;14.03;73.46;99482.97;5091377;28;20370;-81
2023/01/01 11:23:31;;;;;;;3.97;1.80;;;;;;;14.11;72.33;99483.66;5108108;28;20050;-81
2023/01/01 11:26:23;;;;;;;5.95;2.53;;;;;;;14.20;71.47;99483.53;5108722;28;20526;-81
2023/01/01 11:29:01;;;;;;;4.80;2.33;;;;;;;14.27;72.75;99481.66;5097314;28;20070;-81
2023/01/01 11:31:33;;;;;;;4.00;1.88;;;;;;;14.11;72.58;99463.69;5107071;28;20526;-81
2023/01/01 11:34:00;;;;;;;5.55;2.35;;;;;;;14.23;74.11;99463.97;5107299;28;20067;-81
2023/01/01 11:36:31;;;;;;;3.42;2.13;;;;;;;14.16;73.87;99450.25;5094563;28;20146;-81
2023/01/01 11:39:14;;;;;;;5.55;2.28;;;;;;;14.15;75.62;99457.63;5107587;28;20096;-81